Time;durP1;ratioP1;P1;durP2;ratioP2;P2;SDS_P1;SDS_P2;PMS_P1;PMS_P2;Temp;Humidity;BMP_temperature;BMP_pressure;BME280_temperature;BME280_humidity;BME280_pressure;Samples;Min_cycle;Max_cycle;Signal;HPM_P1;HPM_P2
2022/09/28 00:00:22;;;;;;;3.22;1.65;;;;;;;9.30;100.00;96745.31;4152988;28;20934;-47
2022/09/28 00:02:25;;;;;;;2.30;1.38;;;;;;;9.38;100.00;96736.53;4164573;28;20223;-47
2022/09/28 00:04:27;;;;;;;3.35;1.10;;;;;;;9.36;100.00;96736.00;4140503;28;20210;-46
2022/09/28 00:06:29;;;;;;;3.00;1.55;;;;;;;9.32;100.00;96724.84;4156201;28;21871;-46
2022/09/28 00:08:31;;;;;;;1.30;1.20;;;;;;;9.29;100.00;96713.69;4136814;28;20237;-46
2022/09/28 00:10:32;;;;;;;3.13;1.60;;;;;;;9.27;100.00;96707.69;4155140;28;20227;-47
2022/09/28 00:12:34;;;;;;;2.25;1.20;;;;;;;9.28;100.00;96698.41;4151741;28;20205;-45
2022/09/28 00:14:36;;;;;;;1.73;1.13;;;;;;;9.28;100.00;96687.50;4154770;28;20211;-46
2022/09/28 00:16:42;;;;;;;2.60;1.10;;;;;;;9.32;100.00;96691.25;4153117;28;20215;-47
2022/09/28 00:18:44;;;;;;;1.73;1.42;;;;;;;9.27;100.00;96680.38;4140901;28;20295;-47
2022/09/28 00:20:46;;;;;;;2.67;1.45;;;;;;;9.28;100.00;96682.03;4154655;28;20226;-47
2022/09/28 00:22:47;;;;;;;2.90;1.63;;;;;;;9.26;100.00;96678.75;4152149;28;20207;-48
2022/09/28 00:24:49;;;;;;;1.05;1.00;;;;;;;9.28;100.00;96676.59;4146693;28;20884;-46
2022/09/28 00:26:53;;;;;;;1.60;0.85;;;;;;;9.25;100.00;96679.88;4150515;28;20651;-47
2022/09/28 00:29:00;;;;;;;2.78;1.33;;;;;;;9.25;100.00;96672.50;4165586;28;20744;-46
2022/09/28 00:31:02;;;;;;;3.80;1.10;;;;;;;9.29;100.00;96683.66;4149243;28;20319;-48
2022/09/28 00:33:03;;;;;;;3.92;1.30;;;;;;;9.36;100.00;96673.22;4151636;28;20232;-46
2022/09/28 00:35:08;;;;;;;0.93;0.93;;;;;;;9.39;100.00;96686.28;4149251;28;20201;-47
2022/09/28 00:37:12;;;;;;;0.80;0.80;;;;;;;9.31;100.00;96679.56;4150325;28;20211;-48
2022/09/28 00:39:14;;;;;;;1.02;1.00;;;;;;;9.32;100.00;96677.63;4147070;28;20219;-46
2022/09/28 00:41:16;;;;;;;2.85;1.20;;;;;;;9.43;100.00;96684.63;4150336;28;20237;-47
2022/09/28 00:43:19;;;;;;;1.25;1.05;;;;;;;9.44;100.00;96687.06;4151531;28;20205;-47
2022/09/28 00:45:22;;;;;;;0.80;0.80;;;;;;;9.37;100.00;96681.13;4164559;28;20234;-48
2022/09/28 00:47:40;;;;;;;0.80;0.80;;;;;;;9.41;100.00;96686.84;4154674;28;20212;-47
2022/09/28 00:49:56;;;;;;;0.95;0.80;;;;;;;9.36;100.00;96686.88;4155928;28;20292;-47
2022/09/28 00:51:58;;;;;;;0.80;0.75;;;;;;;9.37;100.00;96681.13;4168736;28;20600;-46
2022/09/28 00:54:02;;;;;;;0.65;0.65;;;;;;;9.44;100.00;96680.78;4154182;28;20295;-46
2022/09/28 00:56:06;;;;;;;1.65;0.82;;;;;;;9.43;100.00;96677.22;4158746;28;20307;-47
2022/09/28 00:58:10;;;;;;;0.68;0.68;;;;;;;9.53;100.00;96673.59;4155394;28;20220;-47
2022/09/28 01:00:12;;;;;;;2.00;0.80;;;;;;;9.37;100.00;96669.38;4148473;28;20243;-46
2022/09/28 01:02:14;;;;;;;1.45;1.00;;;;;;;9.45;100.00;96676.94;4148131;28;20645;-46
2022/09/28 01:04:17;;;;;;;1.88;0.90;;;;;;;9.46;100.00;96675.84;4163152;28;20270;-46
2022/09/28 01:06:21;;;;;;;1.08;0.80;;;;;;;9.48;100.00;96665.47;4152096;28;20239;-46
2022/09/28 01:08:23;;;;;;;0.80;0.80;;;;;;;9.61;100.00;96667.53;4164793;28;20212;-46
2022/09/28 01:10:27;;;;;;;0.95;0.80;;;;;;;9.49;100.00;96667.09;4140166;28;20304;-45
2022/09/28 01:12:29;;;;;;;0.63;0.63;;;;;;;9.40;100.00;96679.72;4167948;28;20308;-47
2022/09/28 01:14:32;;;;;;;0.77;0.77;;;;;;;9.43;100.00;96666.31;4154292;28;20223;-47
2022/09/28 01:16:41;;;;;;;1.15;0.60;;;;;;;9.39;100.00;96662.53;4170151;28;20208;-47
2022/09/28 01:19:10;;;;;;;1.85;0.80;;;;;;;9.39;100.00;96667.19;4142835;28;20337;-48
2022/09/28 01:21:23;;;;;;;0.70;0.70;;;;;;;9.28;100.00;96660.22;4146653;28;20236;-47
2022/09/28 01:23:58;;;;;;;1.00;0.90;;;;;;;9.35;100.00;96657.97;4152232;28;20204;-47
2022/09/28 01:26:46;;;;;;;0.95;0.93;;;;;;;9.32;100.00;96661.25;4151810;28;20228;-47
2022/09/28 01:28:53;;;;;;;1.05;0.98;;;;;;;9.27;100.00;96658.56;4133376;28;20212;-48
2022/09/28 01:31:12;;;;;;;1.60;0.95;;;;;;;9.39;100.00;96667.19;4137995;28;20225;-48
2022/09/28 01:33:21;;;;;;;3.22;1.00;;;;;;;9.37;100.00;96664.75;4164771;28;20203;-47
2022/09/28 01:35:38;;;;;;;1.10;1.00;;;;;;;9.27;100.00;96658.56;4156045;28;20200;-48
2022/09/28 01:37:50;;;;;;;1.65;1.00;;;;;;;9.25;100.00;96660.75;4135247;28;20198;-47
2022/09/28 01:39:53;;;;;;;1.00;1.00;;;;;;;9.21;100.00;96648.81;4143074;28;20205;-47
2022/09/28 01:41:56;;;;;;;1.40;1.30;;;;;;;9.30;100.00;96652.53;4147737;28;20205;-47
2022/09/28 01:44:01;;;;;;;1.65;0.90;;;;;;;9.31;100.00;96654.16;4164948;28;20205;-48
2022/09/28 01:46:03;;;;;;;3.47;1.30;;;;;;;9.26;100.00;96646.00;4148993;28;20216;-47
2022/09/28 01:48:06;;;;;;;2.80;1.73;;;;;;;9.29;100.00;96640.00;4155668;28;20751;-47
2022/09/28 01:50:14;;;;;;;1.70;1.60;;;;;;;9.34;100.00;96648.16;4149900;28;20319;-47
2022/09/28 01:52:20;;;;;;;1.30;1.20;;;;;;;9.22;100.00;96628.59;4151046;28;20244;-47
2022/09/28 01:54:30;;;;;;;2.25;1.38;;;;;;;9.25;100.00;96622.56;4158507;28;20573;-47
2022/09/28 01:57:18;;;;;;;2.55;1.55;;;;;;;9.27;100.00;96625.81;4168156;28;21128;-47
2022/09/28 01:59:43;;;;;;;2.55;1.48;;;;;;;9.18;100.00;96627.53;4138939;28;20204;-47
2022/09/28 02:01:54;;;;;;;2.35;1.58;;;;;;;9.19;100.00;96624.53;4154007;28;20786;-47
2022/09/28 02:04:01;;;;;;;4.47;1.73;;;;;;;9.18;100.00;96616.63;4164269;28;20216;-47
2022/09/28 02:06:09;;;;;;;2.38;2.10;;;;;;;9.12;100.00;96617.78;4166093;28;20720;-47
2022/09/28 02:08:28;;;;;;;2.53;1.40;;;;;;;9.15;100.00;96626.19;4152440;28;20210;-47
2022/09/28 02:10:36;;;;;;;1.58;1.48;;;;;;;9.20;100.00;96625.34;4166522;28;21526;-48
2022/09/28 02:12:42;;;;;;;2.08;1.63;;;;;;;9.17;100.00;96634.09;4156788;28;20204;-47
2022/09/28 02:14:46;;;;;;;3.53;1.85;;;;;;;9.21;100.00;96632.44;4157233;28;20223;-47
2022/09/28 02:16:50;;;;;;;2.38;1.98;;;;;;;9.16;100.00;96629.75;4157906;28;20717;-47
2022/09/28 02:18:52;;;;;;;3.22;2.05;;;;;;;9.13;100.00;96627.59;4158375;28;20240;-47
2022/09/28 02:21:08;;;;;;;6.78;1.80;;;;;;;9.12;100.00;96624.06;4157492;28;20702;-48
2022/09/28 02:23:10;;;;;;;3.08;2.25;;;;;;;9.05;100.00;96622.75;4137367;28;20680;-47
2022/09/28 02:25:33;;;;;;;2.28;2.00;;;;;;;9.11;100.00;96629.78;4161382;28;20215;-48
2022/09/28 02:27:40;;;;;;;3.40;2.05;;;;;;;9.13;100.00;96630.31;4163180;28;20716;-47
2022/09/28 02:29:42;;;;;;;3.10;1.60;;;;;;;9.15;100.00;96628.13;4147865;28;20287;-47
2022/09/28 02:31:43;;;;;;;2.25;2.03;;;;;;;9.09;100.00;96619.16;4147723;28;20686;-47
2022/09/28 02:33:46;;;;;;;2.70;2.00;;;;;;;9.10;100.00;96615.34;4164166;28;20218;-48
2022/09/28 02:35:48;;;;;;;2.10;1.48;;;;;;;9.18;100.00;96622.09;4133866;28;20734;-47
2022/09/28 02:37:50;;;;;;;3.70;2.00;;;;;;;9.13;100.00;96613.94;4147140;28;20205;-47
2022/09/28 02:39:51;;;;;;;2.80;1.58;;;;;;;9.12;100.00;96623.22;4153705;28;20303;-47
2022/09/28 02:42:07;;;;;;;3.53;2.10;;;;;;;9.13;100.00;96622.13;4153750;28;20223;-47
2022/09/28 02:44:30;;;;;;;3.47;1.75;;;;;;;9.09;100.00;96621.09;4154817;28;20193;-47
2022/09/28 02:46:46;;;;;;;3.58;2.28;;;;;;;9.20;100.00;96628.06;4155935;28;20316;-47
2022/09/28 02:49:29;;;;;;;3.28;1.50;;;;;;;9.14;100.00;96624.56;4134462;28;20268;-47
2022/09/28 02:51:59;;;;;;;3.35;2.40;;;;;;;9.09;100.00;96618.38;4147971;28;20357;-47
2022/09/28 02:54:16;;;;;;;4.30;2.38;;;;;;;9.14;100.00;96615.59;4152288;28;20193;-48
2022/09/28 02:56:34;;;;;;;2.70;1.80;;;;;;;9.19;100.00;96612.78;4153928;28;20205;-47
2022/09/28 02:58:44;;;;;;;3.47;1.60;;;;;;;9.12;100.00;96612.31;4153983;28;20704;-47
2022/09/28 03:00:57;;;;;;;1.73;1.60;;;;;;;9.17;100.00;96618.56;4159156;28;20220;-48
2022/09/28 03:03:13;;;;;;;2.65;1.80;;;;;;;9.15;100.00;96617.22;4160411;28;20231;-47
2022/09/28 03:05:21;;;;;;;2.40;2.20;;;;;;;9.10;100.00;96620.00;4155486;28;20208;-47
2022/09/28 03:07:28;;;;;;;4.60;2.17;;;;;;;9.10;100.00;96620.00;4166265;28;20235;-47
2022/09/28 03:09:36;;;;;;;2.42;1.67;;;;;;;9.05;100.00;96622.75;4154002;28;20240;-47
2022/09/28 03:11:43;;;;;;;5.43;2.47;;;;;;;9.07;100.00;96615.91;4151848;28;20215;-48
2022/09/28 03:13:45;;;;;;;3.58;2.15;;;;;;;9.12;100.00;96617.78;4155359;28;20558;-48
2022/09/28 03:15:46;;;;;;;3.80;2.35;;;;;;;9.14;100.00;96616.38;4170867;28;20215;-48
2022/09/28 03:17:50;;;;;;;1.83;1.55;;;;;;;9.13;100.00;96619.41;4172587;28;20199;-48
2022/09/28 03:19:51;;;;;;;7.68;2.00;;;;;;;9.15;100.00;96617.22;4151216;28;20274;-48
2022/09/28 03:21:54;;;;;;;2.20;2.03;;;;;;;9.15;100.00;96611.75;4151640;28;20212;-48
2022/09/28 03:23:56;;;;;;;2.95;2.00;;;;;;;9.13;100.00;96609.31;4167030;28;20303;-48
2022/09/28 03:25:58;;;;;;;2.65;1.73;;;;;;;9.20;100.00;96608.97;4156194;28;20304;-48
2022/09/28 03:28:00;;;;;;;1.73;1.60;;;;;;;9.23;100.00;96605.69;4155063;28;20293;-49
2022/09/28 03:30:02;;;;;;;2.50;1.77;;;;;;;9.21;100.00;96616.06;4156210;28;20239;-48
2022/09/28 03:32:04;;;;;;;2.10;1.67;;;;;;;9.24;100.00;96610.03;4153441;28;20216;-48
2022/09/28 03:34:06;;;;;;;2.20;1.65;;;;;;;9.29;100.00;96609.97;4152156;28;20209;-49
2022/09/28 03:36:08;;;;;;;4.22;2.22;;;;;;;9.18;100.00;96611.16;4139480;28;20221;-48
2022/09/28 03:38:10;;;;;;;3.53;1.95;;;;;;;9.24;100.00;96610.03;4151599;28;20322;-47
2022/09/28 03:40:11;;;;;;;4.43;1.55;;;;;;;9.15;100.00;96601.66;4153256;28;20299;-48
2022/09/28 03:42:13;;;;;;;5.15;2.33;;;;;;;9.15;100.00;96603.56;4152789;28;20323;-47
2022/09/28 03:44:15;;;;;;;4.88;2.25;;;;;;;9.17;100.00;96606.81;4152611;28;20217;-48
2022/09/28 03:46:16;;;;;;;4.15;2.13;;;;;;;9.08;100.00;96608.56;4152605;28;21564;-48
2022/09/28 03:48:26;;;;;;;2.53;1.90;;;;;;;9.14;100.00;96610.94;4152527;28;20219;-48
2022/09/28 03:50:32;;;;;;;3.40;1.73;;;;;;;9.15;100.00;96611.75;4151772;28;20238;-48
2022/09/28 03:52:34;;;;;;;2.72;2.10;;;;;;;9.06;100.00;96616.19;4150600;28;20671;-48
2022/09/28 03:54:36;;;;;;;2.42;2.15;;;;;;;9.01;100.00;96616.25;4157137;28;20212;-48
2022/09/28 03:56:39;;;;;;;5.15;1.95;;;;;;;9.11;100.00;96610.69;4164801;28;20646;-48
2022/09/28 03:58:41;;;;;;;4.30;2.05;;;;;;;9.15;100.00;96614.50;4150818;28;20205;-48
2022/09/28 04:00:42;;;;;;;2.78;1.65;;;;;;;9.11;100.00;96616.97;4152182;28;20343;-47
2022/09/28 04:02:44;;;;;;;5.05;2.05;;;;;;;8.97;100.00;96615.19;4153181;28;20315;-48
2022/09/28 04:04:46;;;;;;;5.25;3.65;;;;;;;9.06;100.00;96611.56;4154013;28;20213;-47
2022/09/28 04:06:47;;;;;;;3.65;2.17;;;;;;;8.99;100.00;96607.53;4151825;28;20228;-48
2022/09/28 04:08:49;;;;;;;5.35;2.92;;;;;;;8.97;100.00;96612.47;4154516;28;20205;-47
2022/09/28 04:10:52;;;;;;;4.28;2.00;;;;;;;9.07;100.00;96610.47;4149657;28;20232;-47
2022/09/28 04:12:55;;;;;;;3.83;2.75;;;;;;;9.05;100.00;96611.84;4151278;28;20742;-47
2022/09/28 04:14:56;;;;;;;3.80;2.55;;;;;;;9.09;100.00;96604.72;4156043;28;20255;-47
2022/09/28 04:16:58;;;;;;;5.03;2.30;;;;;;;9.10;100.00;96611.81;4148283;28;20209;-47
2022/09/28 04:19:00;;;;;;;2.53;2.33;;;;;;;9.05;100.00;96612.66;4153580;28;20289;-48
2022/09/28 04:21:06;;;;;;;8.15;2.50;;;;;;;8.91;100.00;96610.88;4149107;28;20295;-47
2022/09/28 04:23:07;;;;;;;4.10;3.08;;;;;;;9.03;100.00;96608.59;4151075;28;20214;-48
2022/09/28 04:25:09;;;;;;;7.30;2.42;;;;;;;9.07;100.00;96620.53;4156560;28;20209;-47
2022/09/28 04:29:31;;;;;;;4.32;2.40;;;;;;;9.08;100.00;96614.81;4150423;28;20206;-46
2022/09/28 04:31:42;;;;;;;4.63;3.20;;;;;;;8.88;100.00;96616.91;4151323;28;20252;-48
2022/09/28 04:33:44;;;;;;;11.82;5.63;;;;;;;8.95;100.00;96617.41;4162927;28;20222;-47
2022/09/28 04:35:45;;;;;;;9.38;2.15;;;;;;;8.81;100.00;96611.78;4164394;28;20212;-48
2022/09/28 04:37:47;;;;;;;3.20;2.55;;;;;;;8.92;100.00;96624.25;4153180;28;20667;-48
2022/09/28 04:39:49;;;;;;;5.00;2.40;;;;;;;8.88;100.00;96623.16;4154484;28;20208;-47
2022/09/28 04:41:50;;;;;;;2.30;2.10;;;;;;;8.82;100.00;96623.50;4156608;28;20212;-47
2022/09/28 04:43:54;;;;;;;6.07;2.85;;;;;;;8.75;100.00;96623.81;4158438;28;20295;-48
2022/09/28 04:45:58;;;;;;;3.40;2.72;;;;;;;8.80;100.00;96625.69;4147389;28;20205;-47
2022/09/28 04:48:00;;;;;;;4.07;2.65;;;;;;;8.85;100.00;96622.94;4152227;28;20201;-47
2022/09/28 04:50:02;;;;;;;2.70;2.45;;;;;;;8.79;100.00;96624.88;4151863;28;20722;-47
2022/09/28 04:52:04;;;;;;;4.05;2.85;;;;;;;8.79;100.00;96626.78;4165005;28;20235;-47
2022/09/28 04:54:06;;;;;;;4.32;2.85;;;;;;;8.73;100.00;96630.66;4151454;28;20300;-47
2022/09/28 04:56:10;;;;;;;4.07;2.42;;;;;;;8.61;100.00;96624.78;4146570;28;20296;-48
2022/09/28 04:58:12;;;;;;;3.00;2.80;;;;;;;8.51;100.00;96622.09;4154309;28;20213;-49
2022/09/28 05:00:14;;;;;;;5.57;3.65;;;;;;;8.56;100.00;96624.78;4151894;28;20237;-47
2022/09/28 05:02:15;;;;;;;4.03;2.67;;;;;;;8.53;100.00;96625.34;4153797;28;20647;-47
2022/09/28 05:04:17;;;;;;;4.53;2.95;;;;;;;8.51;100.00;96628.38;4149820;28;20204;-47
2022/09/28 05:06:27;;;;;;;6.63;2.50;;;;;;;8.63;100.00;96631.53;4148487;28;20200;-48
2022/09/28 05:08:29;;;;;;;5.60;2.72;;;;;;;8.59;100.00;96635.94;4137374;28;20287;-48
2022/09/28 05:10:32;;;;;;;4.13;2.75;;;;;;;8.65;100.00;96631.25;4148019;28;20249;-48
2022/09/28 05:12:34;;;;;;;5.43;2.65;;;;;;;8.61;100.00;96638.41;4167344;28;20760;-47
2022/09/28 05:14:35;;;;;;;3.97;2.40;;;;;;;8.62;100.00;96640.03;4169348;28;20298;-47
2022/09/28 05:16:37;;;;;;;3.97;2.38;;;;;;;8.65;100.00;96648.44;4153409;28;20643;-47
2022/09/28 05:18:39;;;;;;;4.72;2.22;;;;;;;8.66;100.00;96636.44;4153886;28;20489;-47
2022/09/28 05:20:41;;;;;;;5.63;2.90;;;;;;;8.60;100.00;96637.56;4154101;28;20599;-49
2022/09/28 05:22:42;;;;;;;2.63;2.42;;;;;;;8.61;100.00;96643.84;4148676;28;20205;-48
2022/09/28 05:24:45;;;;;;;6.20;3.13;;;;;;;8.60;100.00;96637.56;4151506;28;20594;-47
2022/09/28 05:26:46;;;;;;;4.38;3.15;;;;;;;8.65;100.00;96650.34;4146931;28;20224;-47
2022/09/28 05:28:48;;;;;;;6.68;3.33;;;;;;;8.54;100.00;96649.59;4161685;28;20635;-47
2022/09/28 05:30:51;;;;;;;4.00;2.65;;;;;;;8.60;100.00;96651.19;4150043;28;20299;-48
2022/09/28 05:32:52;;;;;;;4.50;2.47;;;;;;;8.62;100.00;96656.38;4154904;28;20291;-48
2022/09/28 05:34:55;;;;;;;8.50;3.20;;;;;;;8.63;100.00;96666.97;4168716;28;20204;-48
2022/09/28 05:36:56;;;;;;;6.55;2.45;;;;;;;8.68;100.00;96666.16;4153992;28;20586;-48
2022/09/28 05:38:58;;;;;;;7.40;3.72;;;;;;;8.46;100.00;96663.84;4153474;28;20247;-47
2022/09/28 05:41:00;;;;;;;2.70;2.20;;;;;;;8.58;100.00;96668.94;4160561;28;20901;-48
2022/09/28 05:43:07;;;;;;;4.47;2.22;;;;;;;8.61;100.00;96676.56;4152464;28;20212;-48
2022/09/28 05:45:09;;;;;;;3.17;2.25;;;;;;;8.66;100.00;96669.16;4152577;28;20738;-48
2022/09/28 05:47:11;;;;;;;9.50;2.55;;;;;;;8.71;100.00;96676.47;4169536;28;20220;-47
2022/09/28 05:49:13;;;;;;;3.78;2.10;;;;;;;8.65;100.00;96683.06;4166905;28;20323;-48
2022/09/28 05:51:14;;;;;;;3.13;2.33;;;;;;;8.63;100.00;96677.88;4152970;28;20236;-47
2022/09/28 05:53:16;;;;;;;5.18;2.45;;;;;;;8.61;100.00;96676.56;4152553;28;20299;-48
2022/09/28 05:55:18;;;;;;;4.25;2.33;;;;;;;8.60;100.00;96675.72;4152415;28;20324;-48
2022/09/28 05:57:19;;;;;;;6.60;2.47;;;;;;;8.59;100.00;96671.38;4153655;28;20240;-47
2022/09/28 05:59:21;;;;;;;5.45;2.67;;;;;;;8.55;100.00;96678.47;4160996;28;20299;-48
2022/09/28 06:01:23;;;;;;;6.15;3.03;;;;;;;8.59;100.00;96678.72;4137489;28;20321;-47
2022/09/28 06:03:25;;;;;;;4.20;3.17;;;;;;;8.62;100.00;96683.63;4166061;28;20251;-49
2022/09/28 06:05:27;;;;;;;5.28;2.92;;;;;;;8.70;100.00;96685.75;4157969;28;20256;-48
2022/09/28 06:07:29;;;;;;;3.92;2.58;;;;;;;8.64;100.00;96679.53;4154320;28;20233;-48
2022/09/28 06:09:31;;;;;;;5.70;3.22;;;;;;;8.59;100.00;96678.72;4139940;28;20251;-48
2022/09/28 06:11:35;;;;;;;4.30;3.30;;;;;;;8.70;100.00;96680.31;4152254;28;20261;-47
2022/09/28 06:13:40;;;;;;;4.28;2.72;;;;;;;8.69;100.00;96679.47;4153258;28;20201;-48
2022/09/28 06:15:43;;;;;;;5.30;3.08;;;;;;;8.70;100.00;96685.75;4157195;28;20303;-47
2022/09/28 06:17:58;;;;;;;5.88;3.63;;;;;;;8.66;100.00;96685.50;4152571;28;20287;-47
2022/09/28 06:20:20;;;;;;;3.17;2.88;;;;;;;8.61;100.00;96690.19;4150455;28;20307;-48
2022/09/28 06:22:22;;;;;;;5.20;3.03;;;;;;;8.60;100.00;96688.53;4152885;28;20208;-47
2022/09/28 06:24:23;;;;;;;3.22;2.88;;;;;;;8.79;100.00;96698.50;4150856;28;20201;-48
2022/09/28 06:26:28;;;;;;;5.30;3.50;;;;;;;8.97;100.00;96697.03;4148097;28;20236;-48
2022/09/28 06:28:29;;;;;;;4.22;3.55;;;;;;;9.41;100.00;96698.53;4147109;28;20221;-48
2022/09/28 06:30:39;;;;;;;3.58;3.28;;;;;;;9.59;100.00;96706.03;4132624;28;20328;-47
2022/09/28 06:32:57;;;;;;;4.22;3.72;;;;;;;10.52;100.00;96703.59;4150592;28;20639;-48
2022/09/28 06:34:58;;;;;;;6.78;3.40;;;;;;;10.62;100.00;96703.47;4154657;28;20205;-48
2022/09/28 06:37:03;;;;;;;8.35;3.40;;;;;;;10.78;100.00;96703.75;4153889;28;20576;-48
2022/09/28 06:39:05;;;;;;;4.50;2.88;;;;;;;10.57;100.00;96711.75;4138242;28;20220;-47
2022/09/28 06:41:08;;;;;;;4.18;2.17;;;;;;;10.62;100.00;96704.28;4155974;28;20817;-48
2022/09/28 06:43:13;;;;;;;5.28;2.20;;;;;;;10.59;100.00;96699.41;4154346;28;20220;-47
2022/09/28 06:45:18;;;;;;;5.72;1.85;;;;;;;10.84;100.00;96710.00;4154155;28;20241;-47
2022/09/28 06:47:20;;;;;;;4.68;2.05;;;;;;;11.27;100.00;96712.34;4154058;28;20228;-48
2022/09/28 06:49:22;;;;;;;3.45;2.88;;;;;;;11.70;100.00;96711.06;4156363;28;20197;-48
2022/09/28 06:51:24;;;;;;;4.50;3.08;;;;;;;11.69;97.97;96719.56;4160212;28;20319;-47
2022/09/28 06:53:27;;;;;;;4.32;2.08;;;;;;;11.92;99.04;96722.16;4160342;28;20251;-47
2022/09/28 06:55:29;;;;;;;2.78;2.17;;;;;;;11.82;96.69;96722.34;4160239;28;20212;-49
2022/09/28 06:57:31;;;;;;;3.25;2.35;;;;;;;11.72;98.24;96730.75;4161571;28;20278;-48
2022/09/28 06:59:33;;;;;;;4.93;2.30;;;;;;;12.55;95.76;96739.56;4156171;28;20288;-48
2022/09/28 07:01:34;;;;;;;2.95;2.00;;;;;;;12.50;94.42;96725.94;4156892;28;20260;-48
2022/09/28 07:03:36;;;;;;;3.47;2.63;;;;;;;12.46;92.31;96735.09;4155708;28;20243;-47
2022/09/28 07:05:47;;;;;;;2.92;2.08;;;;;;;12.79;93.22;96734.69;4162542;28;20247;-48
2022/09/28 07:07:49;;;;;;;2.75;1.58;;;;;;;12.42;91.85;96739.56;4168503;28;20238;-48
2022/09/28 07:09:54;;;;;;;5.03;1.73;;;;;;;13.24;92.61;96741.09;4155342;28;20197;-48
2022/09/28 07:11:57;;;;;;;4.82;2.85;;;;;;;13.02;90.62;96747.34;4169160;28;20204;-47
2022/09/28 07:13:58;;;;;;;5.25;1.88;;;;;;;13.70;90.15;96750.66;4170403;28;20212;-48
2022/09/28 07:16:00;;;;;;;3.47;1.52;;;;;;;13.53;87.56;96747.81;4154264;28;20220;-48
2022/09/28 07:18:04;;;;;;;3.80;2.15;;;;;;;12.80;90.32;96752.75;4156019;28;20205;-47
2022/09/28 07:20:06;;;;;;;4.82;2.78;;;;;;;12.45;90.79;96753.47;4171184;28;20685;-48
2022/09/28 07:22:19;;;;;;;4.75;2.88;;;;;;;12.07;92.22;96759.44;4155549;28;20211;-49
2022/09/28 07:24:34;;;;;;;8.15;2.03;;;;;;;11.87;93.60;96771.59;4157423;28;20209;-47
2022/09/28 07:26:36;;;;;;;12.98;2.15;;;;;;;12.34;94.41;96771.28;4156209;28;20572;-48
2022/09/28 07:28:40;;;;;;;3.55;2.00;;;;;;;12.99;93.04;96772.69;4155214;28;20264;-48
2022/09/28 07:30:43;;;;;;;1.95;1.60;;;;;;;13.02;90.10;96772.06;4156107;28;20269;-48
2022/09/28 07:32:45;;;;;;;2.55;1.45;;;;;;;13.45;89.54;96772.47;4160374;28;20215;-47
2022/09/28 07:34:47;;;;;;;3.33;1.73;;;;;;;13.01;87.73;96775.94;4165832;28;20204;-48
2022/09/28 07:36:50;;;;;;;2.83;1.90;;;;;;;12.77;88.76;96783.56;4159930;28;20585;-47
2022/09/28 07:38:52;;;;;;;3.95;1.98;;;;;;;13.01;88.46;96783.34;4159936;28;20206;-48
2022/09/28 07:41:10;;;;;;;4.65;1.67;;;;;;;13.07;88.23;96784.88;4153227;28;20253;-48
2022/09/28 07:43:12;;;;;;;3.15;1.83;;;;;;;12.97;90.50;96790.59;4154691;28;20212;-48
2022/09/28 07:45:14;;;;;;;4.65;1.98;;;;;;;13.12;90.36;96791.09;4159883;28;20213;-49
2022/09/28 07:47:17;;;;;;;3.10;2.08;;;;;;;13.34;87.45;96782.06;4158706;28;20677;-48
2022/09/28 07:49:21;;;;;;;4.65;1.77;;;;;;;14.04;86.62;96794.88;4153318;28;20263;-48
2022/09/28 07:51:23;;;;;;;2.90;1.88;;;;;;;14.54;85.21;96796.34;4155101;28;20662;-47
2022/09/28 07:53:24;;;;;;;3.95;1.63;;;;;;;14.52;84.71;96798.59;4155243;28;20213;-48
2022/09/28 07:55:26;;;;;;;3.72;1.58;;;;;;;14.83;84.08;96791.09;4139802;28;20612;-47
2022/09/28 07:57:27;;;;;;;6.38;1.88;;;;;;;14.34;83.67;96793.31;4157054;28;20709;-48
2022/09/28 07:59:30;;;;;;;3.85;1.65;;;;;;;13.98;83.88;96800.84;4160711;28;20216;-48
2022/09/28 08:01:32;;;;;;;2.40;1.42;;;;;;;14.50;84.19;96811.84;4153601;28;20605;-47
2022/09/28 08:03:34;;;;;;;3.25;1.60;;;;;;;13.92;84.20;96813.91;4155397;28;20670;-48
2022/09/28 08:05:36;;;;;;;2.25;1.83;;;;;;;13.83;82.74;96803.97;4169540;28;20270;-48
2022/09/28 08:07:38;;;;;;;4.80;1.45;;;;;;;13.65;85.45;96819.53;4150667;28;20465;-47
2022/09/28 08:09:39;;;;;;;3.00;1.50;;;;;;;13.86;86.05;96819.84;4158690;28;20213;-48
2022/09/28 08:11:42;;;;;;;2.50;1.10;;;;;;;14.25;83.99;96823.56;4165264;28;20215;-48
2022/09/28 08:13:45;;;;;;;6.85;1.80;;;;;;;13.86;84.77;96825.34;4150440;28;20231;-48
2022/09/28 08:15:50;;;;;;;1.60;1.02;;;;;;;13.65;86.02;96819.53;4167434;28;20212;-47
2022/09/28 08:18:06;;;;;;;5.85;2.10;;;;;;;13.13;86.08;96816.59;4153952;28;20196;-48
2022/09/28 08:22:33;;;;;;;2.28;1.35;;;;;;;12.83;87.41;96823.50;4149873;28;20609;-46
2022/09/28 08:24:35;;;;;;;3.88;1.48;;;;;;;12.34;89.20;96823.38;4153275;28;20212;-47
2022/09/28 08:26:36;;;;;;;6.88;1.90;;;;;;;12.18;90.04;96824.75;4139095;28;20696;-47
2022/09/28 08:28:38;;;;;;;2.33;1.50;;;;;;;12.17;89.86;96825.88;4163811;28;20314;-47
2022/09/28 08:30:40;;;;;;;3.47;1.38;;;;;;;12.04;90.10;96826.66;4155669;28;20756;-47
2022/09/28 08:32:48;;;;;;;7.28;1.40;;;;;;;11.93;91.08;96835.34;4146161;28;20679;-47
2022/09/28 08:34:54;;;;;;;4.90;1.88;;;;;;;12.17;91.17;96825.88;4148770;28;20670;-47
2022/09/28 08:36:59;;;;;;;1.85;1.38;;;;;;;12.83;90.14;96834.47;4154997;28;20201;-47
2022/09/28 08:39:00;;;;;;;2.85;1.70;;;;;;;13.21;86.54;96841.41;4151391;28;20849;-48
2022/09/28 08:41:14;;;;;;;3.90;1.50;;;;;;;13.84;85.32;96839.38;4149871;28;20652;-47
2022/09/28 08:43:45;;;;;;;2.35;1.35;;;;;;;13.84;81.48;96839.38;4159384;28;20208;-48
2022/09/28 08:45:46;;;;;;;3.58;1.58;;;;;;;14.51;80.14;96852.00;4153071;28;20518;-48
2022/09/28 08:50:18;;;;;;;2.08;1.38;;;;;;;15.87;78.37;96844.16;4156104;28;20287;-47
2022/09/28 08:52:26;;;;;;;3.10;1.10;;;;;;;15.81;76.67;96866.69;4169310;28;20209;-47
2022/09/28 08:54:45;;;;;;;2.45;1.15;;;;;;;16.39;76.28;96859.59;4151730;28;20200;-47
2022/09/28 08:56:53;;;;;;;1.35;1.00;;;;;;;16.77;75.44;96868.72;4150853;28;20211;-48
2022/09/28 08:58:59;;;;;;;4.00;1.00;;;;;;;16.15;73.64;96853.72;4150335;28;20267;-48
2022/09/28 09:01:02;;;;;;;1.38;1.00;;;;;;;16.04;72.79;96865.44;4153924;28;20220;-48
2022/09/28 09:03:12;;;;;;;0.82;0.77;;;;;;;16.70;74.90;96868.44;4153614;28;20224;-49
2022/09/28 09:05:17;;;;;;;8.98;1.00;;;;;;;15.92;73.39;96874.38;4164770;28;20211;-48
2022/09/28 09:07:28;;;;;;;2.00;0.98;;;;;;;14.43;74.67;96869.28;4163494;28;20212;-48
2022/09/28 09:09:58;;;;;;;2.15;1.00;;;;;;;13.71;73.61;96872.44;4157686;28;21238;-47
2022/09/28 09:12:12;;;;;;;1.48;0.77;;;;;;;13.23;77.95;96872.13;4164401;28;20331;-48
2022/09/28 09:14:26;;;;;;;1.95;1.10;;;;;;;12.97;77.08;96873.75;4148382;28;20208;-47
2022/09/28 09:16:43;;;;;;;1.88;1.20;;;;;;;12.77;80.66;96876.06;4160272;28;20213;-47
2022/09/28 09:18:54;;;;;;;4.97;1.00;;;;;;;12.96;80.56;96872.13;4154920;28;20698;-47
2022/09/28 09:20:58;;;;;;;1.90;1.50;;;;;;;13.70;82.29;96877.09;4154031;28;20709;-47
2022/09/28 09:23:09;;;;;;;1.20;0.95;;;;;;;14.09;80.37;96871.78;4150051;28;20299;-48
2022/09/28 09:25:22;;;;;;;3.03;0.95;;;;;;;14.82;78.03;96882.31;4150937;28;20243;-47
2022/09/28 09:27:25;;;;;;;1.48;0.93;;;;;;;15.19;77.82;96882.63;4167531;28;20537;-48
2022/09/28 09:29:50;;;;;;;2.63;0.98;;;;;;;15.20;75.29;96878.72;4145514;28;20232;-47
2022/09/28 09:32:19;;;;;;;2.40;1.10;;;;;;;16.03;75.84;96874.84;4127479;28;20208;-47
2022/09/28 09:34:44;;;;;;;1.90;0.80;;;;;;;16.05;69.85;96887.19;4167736;28;20204;-47
2022/09/28 09:37:00;;;;;;;1.85;0.90;;;;;;;16.23;74.34;96879.72;4138570;28;20207;-48
2022/09/28 09:39:17;;;;;;;2.05;1.17;;;;;;;16.08;70.29;96877.41;4148544;28;20659;-48
2022/09/28 09:41:43;;;;;;;2.05;0.85;;;;;;;16.04;68.65;96893.03;4145723;28;20232;-49
2022/09/28 09:43:54;;;;;;;1.77;0.70;;;;;;;15.51;69.12;96879.47;4148273;28;20337;-49
2022/09/28 09:46:17;;;;;;;3.72;0.77;;;;;;;15.82;72.22;96882.94;4148746;28;20291;-48
2022/09/28 09:48:24;;;;;;;1.77;0.80;;;;;;;15.10;69.78;96878.22;4150461;28;20283;-48
2022/09/28 09:50:31;;;;;;;2.08;0.80;;;;;;;15.79;69.85;96880.84;4153880;28;20225;-50
2022/09/28 09:52:45;;;;;;;1.70;0.73;;;;;;;15.80;70.50;96881.63;4130003;28;21011;-48
2022/09/28 09:54:55;;;;;;;1.73;0.63;;;;;;;15.62;67.47;96880.00;4152164;28;20718;-48
2022/09/28 09:56:56;;;;;;;2.17;0.90;;;;;;;15.54;70.28;96884.38;4152227;28;20288;-48
2022/09/28 09:59:03;;;;;;;1.63;0.65;;;;;;;15.75;70.04;96884.56;4147916;28;20244;-49
2022/09/28 10:01:09;;;;;;;2.05;0.90;;;;;;;16.02;68.88;96885.06;4165677;28;20318;-49